sensor_id;sensor_type;location;lat;lon;timestamp;pressure;altitude;pressure_sealevel;temperature;humidity
49529;BME280;35423;37.320;-121.762;2023-07-29T00:00:25;99839.90;;;45.65;3.90
49529;BME280;35423;37.320;-121.762;2023-07-29T00:02:51;99835.88;;;46.07;3.96
49529;BME280;35423;37.320;-121.762;2023-07-29T00:05:17;99835.52;;;46.12;3.75
49529;BME280;35423;37.320;-121.762;2023-07-29T00:07:47;99831.87;;;45.70;3.59
49529;BME280;35423;37.320;-121.762;2023-07-29T00:10:14;99833.31;;;45.55;3.65
49529;BME280;35423;37.320;-121.762;2023-07-29T00:12:42;99833.80;;;45.59;3.74
49529;BME280;35423;37.320;-121.762;2023-07-29T00:15:09;99837.25;;;45.73;3.72
49529;BME280;35423;37.320;-121.762;2023-07-29T00:17:42;99833.47;;;45.59;3.78
49529;BME280;35423;37.320;-121.762;2023-07-29T00:20:16;99833.92;;;45.71;3.90
49529;BME280;35423;37.320;-121.762;2023-07-29T00:22:42;99828.66;;;45.42;4.06
49529;BME280;35423;37.320;-121.762;2023-07-29T00:25:08;99828.89;;;45.62;4.08
49529;BME280;35423;37.320;-121.762;2023-07-29T00:27:37;99824.55;;;45.35;4.41
49529;BME280;35423;37.320;-121.762;2023-07-29T00:30:03;99825.59;;;45.55;4.49
49529;BME280;35423;37.320;-121.762;2023-07-29T00:32:29;99826.77;;;45.19;4.47
49529;BME280;35423;37.320;-121.762;2023-07-29T00:34:52;99829.79;;;45.35;4.56
49529;BME280;35423;37.320;-121.762;2023-07-29T00:37:18;99826.85;;;45.22;4.50
49529;BME280;35423;37.320;-121.762;2023-07-29T00:39:44;99831.31;;;45.28;4.62
49529;BME280;35423;37.320;-121.762;2023-07-29T00:42:10;99830.79;;;44.93;4.57
49529;BME280;35423;37.320;-121.762;2023-07-29T00:44:41;99834.62;;;45.05;4.69
49529;BME280;35423;37.320;-121.762;2023-07-29T00:47:07;99834.39;;;44.98;4.75
49529;BME280;35423;37.320;-121.762;2023-07-29T00:49:37;99837.31;;;44.61;4.49
49529;BME280;35423;37.320;-121.762;2023-07-29T00:52:08;99835.91;;;44.47;4.35
49529;BME280;35423;37.320;-121.762;2023-07-29T00:54:29;99836.56;;;44.50;4.53
49529;BME280;35423;37.320;-121.762;2023-07-29T00:56:59;99838.30;;;44.39;4.43
49529;BME280;35423;37.320;-121.762;2023-07-29T00:59:20;99834.51;;;44.11;4.72
49529;BME280;35423;37.320;-121.762;2023-07-29T01:01:44;99840.88;;;43.77;4.81
49529;BME280;35423;37.320;-121.762;2023-07-29T01:04:11;99840.85;;;44.14;4.81
49529;BME280;35423;37.320;-121.762;2023-07-29T01:06:45;99842.35;;;44.09;4.94
49529;BME280;35423;37.320;-121.762;2023-07-29T01:09:04;99847.41;;;44.00;4.86
49529;BME280;35423;37.320;-121.762;2023-07-29T01:11:48;99853.40;;;43.85;4.78
49529;BME280;35423;37.320;-121.762;2023-07-29T01:14:01;99857.31;;;43.66;4.74
49529;BME280;35423;37.320;-121.762;2023-07-29T01:16:31;99858.70;;;43.53;4.61
49529;BME280;35423;37.320;-121.762;2023-07-29T01:18:51;99861.11;;;43.44;4.79
49529;BME280;35423;37.320;-121.762;2023-07-29T01:21:17;99863.58;;;43.60;4.86
49529;BME280;35423;37.320;-121.762;2023-07-29T01:23:44;99866.30;;;43.43;4.68
49529;BME280;35423;37.320;-121.762;2023-07-29T01:26:11;99862.40;;;43.51;4.50
49529;BME280;35423;37.320;-121.762;2023-07-29T01:28:36;99864.38;;;43.43;4.39
49529;BME280;35423;37.320;-121.762;2023-07-29T01:31:07;99864.65;;;42.85;4.38
49529;BME280;35423;37.320;-121.762;2023-07-29T01:33:32;99868.34;;;43.11;4.46
49529;BME280;35423;37.320;-121.762;2023-07-29T01:35:57;99865.91;;;42.94;4.54
49529;BME280;35423;37.320;-121.762;2023-07-29T01:38:19;99869.22;;;42.57;4.66
49529;BME280;35423;37.320;-121.762;2023-07-29T01:40:45;99870.06;;;42.66;4.76
49529;BME280;35423;37.320;-121.762;2023-07-29T01:43:11;99873.72;;;42.84;4.92
49529;BME280;35423;37.320;-121.762;2023-07-29T01:45:36;99871.08;;;42.37;5.03
49529;BME280;35423;37.320;-121.762;2023-07-29T01:48:02;99866.88;;;42.50;5.00
49529;BME280;35423;37.320;-121.762;2023-07-29T01:50:27;99866.99;;;42.09;5.13
49529;BME280;35423;37.320;-121.762;2023-07-29T01:52:58;99869.88;;;42.51;5.24
49529;BME280;35423;37.320;-121.762;2023-07-29T01:55:25;99872.85;;;42.38;5.32
49529;BME280;35423;37.320;-121.762;2023-07-29T01:57:51;99874.02;;;42.02;5.50
49529;BME280;35423;37.320;-121.762;2023-07-29T02:00:20;99874.26;;;42.09;5.57
49529;BME280;35423;37.320;-121.762;2023-07-29T02:02:47;99877.36;;;41.54;5.72
49529;BME280;35423;37.320;-121.762;2023-07-29T02:05:11;99878.11;;;41.97;5.60
49529;BME280;35423;37.320;-121.762;2023-07-29T02:07:37;99877.38;;;41.68;5.57
49529;BME280;35423;37.320;-121.762;2023-07-29T02:10:07;99880.42;;;41.60;5.68
49529;BME280;35423;37.320;-121.762;2023-07-29T02:12:33;99879.29;;;41.68;5.85
49529;BME280;35423;37.320;-121.762;2023-07-29T02:14:59;99874.75;;;41.31;5.97
49529;BME280;35423;37.320;-121.762;2023-07-29T02:17:30;99879.27;;;41.19;6.02
49529;BME280;35423;37.320;-121.762;2023-07-29T02:19:57;99880.92;;;41.30;6.09
49529;BME280;35423;37.320;-121.762;2023-07-29T02:22:25;99884.45;;;40.94;6.18
49529;BME280;35423;37.320;-121.762;2023-07-29T02:24:55;99880.90;;;41.22;6.28
49529;BME280;35423;37.320;-121.762;2023-07-29T02:27:20;99877.47;;;40.97;6.08
49529;BME280;35423;37.320;-121.762;2023-07-29T02:29:49;99876.45;;;40.58;6.12
49529;BME280;35423;37.320;-121.762;2023-07-29T02:32:17;99880.88;;;40.59;6.46
49529;BME280;35423;37.320;-121.762;2023-07-29T02:34:52;99880.68;;;40.40;6.75
49529;BME280;35423;37.320;-121.762;2023-07-29T02:37:12;99885.09;;;40.22;6.92
49529;BME280;35423;37.320;-121.762;2023-07-29T02:39:39;99888.58;;;40.06;6.92
49529;BME280;35423;37.320;-121.762;2023-07-29T02:42:04;99890.16;;;40.10;6.98
49529;BME280;35423;37.320;-121.762;2023-07-29T02:44:32;99894.78;;;40.17;7.04
49529;BME280;35423;37.320;-121.762;2023-07-29T02:46:55;99899.21;;;39.78;7.18
49529;BME280;35423;37.320;-121.762;2023-07-29T02:49:24;99903.08;;;39.83;7.43
49529;BME280;35423;37.320;-121.762;2023-07-29T02:51:49;99905.75;;;39.48;7.67
49529;BME280;35423;37.320;-121.762;2023-07-29T02:54:15;99908.43;;;39.41;8.00
49529;BME280;35423;37.320;-121.762;2023-07-29T02:56:49;99910.26;;;39.42;8.24
49529;BME280;35423;37.320;-121.762;2023-07-29T02:59:13;99915.46;;;39.21;8.40
49529;BME280;35423;37.320;-121.762;2023-07-29T03:01:40;99920.87;;;38.91;8.50
49529;BME280;35423;37.320;-121.762;2023-07-29T03:04:05;99923.38;;;38.70;8.70
49529;BME280;35423;37.320;-121.762;2023-07-29T03:06:32;99927.29;;;38.86;8.69
49529;BME280;35423;37.320;-121.762;2023-07-29T03:08:58;99926.92;;;37.94;8.69
49529;BME280;35423;37.320;-121.762;2023-07-29T03:11:26;99925.77;;;38.66;8.55
49529;BME280;35423;37.320;-121.762;2023-07-29T03:13:53;99925.60;;;38.63;8.70
49529;BME280;35423;37.320;-121.762;2023-07-29T03:16:26;99930.54;;;38.13;8.87
49529;BME280;35423;37.320;-121.762;2023-07-29T03:19:00;99934.77;;;38.06;9.19
49529;BME280;35423;37.320;-121.762;2023-07-29T03:21:26;99937.19;;;38.02;9.41
49529;BME280;35423;37.320;-121.762;2023-07-29T03:23:53;99943.96;;;37.74;9.57
49529;BME280;35423;37.320;-121.762;2023-07-29T03:26:20;99942.84;;;37.59;9.60
49529;BME280;35423;37.320;-121.762;2023-07-29T03:28:48;99945.02;;;37.26;9.64
49529;BME280;35423;37.320;-121.762;2023-07-29T03:31:13;99949.31;;;37.12;9.55
49529;BME280;35423;37.320;-121.762;2023-07-29T03:33:40;99949.35;;;37.16;9.56
49529;BME280;35423;37.320;-121.762;2023-07-29T03:36:05;99955.18;;;37.03;9.57
49529;BME280;35423;37.320;-121.762;2023-07-29T03:38:32;99958.80;;;36.86;9.59
49529;BME280;35423;37.320;-121.762;2023-07-29T03:40:59;99961.34;;;36.75;9.63
49529;BME280;35423;37.320;-121.762;2023-07-29T03:43:28;99964.50;;;36.90;9.67
49529;BME280;35423;37.320;-121.762;2023-07-29T03:45:53;99967.32;;;36.74;9.78
49529;BME280;35423;37.320;-121.762;2023-07-29T03:48:18;99969.69;;;36.76;9.91
49529;BME280;35423;37.320;-121.762;2023-07-29T03:50:44;99970.26;;;36.16;9.96
49529;BME280;35423;37.320;-121.762;2023-07-29T03:53:11;99971.16;;;36.76;10.04
49529;BME280;35423;37.320;-121.762;2023-07-29T03:55:40;99971.92;;;36.10;10.21
49529;BME280;35423;37.320;-121.762;2023-07-29T03:58:07;99978.03;;;36.18;10.33
49529;BME280;35423;37.320;-121.762;2023-07-29T04:00:30;99979.13;;;36.08;10.42
49529;BME280;35423;37.320;-121.762;2023-07-29T04:02:56;99983.84;;;35.99;10.51
49529;BME280;35423;37.320;-121.762;2023-07-29T04:05:21;99991.43;;;36.39;10.61
49529;BME280;35423;37.320;-121.762;2023-07-29T04:07:53;99992.97;;;35.74;10.74
49529;BME280;35423;37.320;-121.762;2023-07-29T04:10:22;99994.75;;;35.60;10.85
49529;BME280;35423;37.320;-121.762;2023-07-29T04:12:52;99995.85;;;35.72;10.93
49529;BME280;35423;37.320;-121.762;2023-07-29T04:15:18;99999.91;;;35.86;11.02
49529;BME280;35423;37.320;-121.762;2023-07-29T04:17:53;100006.83;;;35.29;11.06
49529;BME280;35423;37.320;-121.762;2023-07-29T04:20:19;100010.45;;;35.38;11.14
49529;BME280;35423;37.320;-121.762;2023-07-29T04:22:47;100014.60;;;35.53;11.19
49529;BME280;35423;37.320;-121.762;2023-07-29T04:25:14;100014.38;;;35.32;11.29
49529;BME280;35423;37.320;-121.762;2023-07-29T04:27:41;100016.66;;;35.12;11.38
49529;BME280;35423;37.320;-121.762;2023-07-29T04:30:08;100019.02;;;35.06;11.39
49529;BME280;35423;37.320;-121.762;2023-07-29T04:32:36;100025.49;;;34.99;11.43
49529;BME280;35423;37.320;-121.762;2023-07-29T04:35:03;100023.73;;;35.05;11.62
49529;BME280;35423;37.320;-121.762;2023-07-29T04:37:31;100025.53;;;34.73;11.75
49529;BME280;35423;37.320;-121.762;2023-07-29T04:39:57;100029.54;;;34.64;11.86
49529;BME280;35423;37.320;-121.762;2023-07-29T04:42:26;100036.34;;;34.56;11.99
49529;BME280;35423;37.320;-121.762;2023-07-29T04:44:55;100040.79;;;34.70;12.07
49529;BME280;35423;37.320;-121.762;2023-07-29T04:47:19;100044.02;;;34.51;12.19
49529;BME280;35423;37.320;-121.762;2023-07-29T04:49:51;100050.08;;;34.37;12.30
49529;BME280;35423;37.320;-121.762;2023-07-29T04:52:18;100054.03;;;34.22;12.37
49529;BME280;35423;37.320;-121.762;2023-07-29T04:54:47;100054.85;;;33.84;12.48
49529;BME280;35423;37.320;-121.762;2023-07-29T04:57:12;100054.59;;;33.97;12.52
49529;BME280;35423;37.320;-121.762;2023-07-29T04:59:34;100054.28;;;34.07;12.60
49529;BME280;35423;37.320;-121.762;2023-07-29T05:02:00;100054.85;;;33.65;12.65
49529;BME280;35423;37.320;-121.762;2023-07-29T05:04:32;100053.03;;;33.27;12.70
49529;BME280;35423;37.320;-121.762;2023-07-29T05:07:00;100049.83;;;33.88;12.76
49529;BME280;35423;37.320;-121.762;2023-07-29T05:09:24;100047.38;;;33.70;12.84
49529;BME280;35423;37.320;-121.762;2023-07-29T05:11:51;100044.56;;;33.39;12.84
49529;BME280;35423;37.320;-121.762;2023-07-29T05:14:18;100044.18;;;33.30;12.89
49529;BME280;35423;37.320;-121.762;2023-07-29T05:16:49;100043.03;;;33.43;12.92
49529;BME280;35423;37.320;-121.762;2023-07-29T05:19:11;100043.62;;;33.58;12.98
49529;BME280;35423;37.320;-121.762;2023-07-29T05:21:37;100049.43;;;33.24;13.06
49529;BME280;35423;37.320;-121.762;2023-07-29T05:24:06;100055.41;;;33.19;13.11
49529;BME280;35423;37.320;-121.762;2023-07-29T05:26:33;100060.02;;;32.88;13.19
49529;BME280;35423;37.320;-121.762;2023-07-29T05:29:02;100060.85;;;33.01;13.29
49529;BME280;35423;37.320;-121.762;2023-07-29T05:31:30;100058.90;;;33.20;13.37
49529;BME280;35423;37.320;-121.762;2023-07-29T05:33:55;100058.97;;;32.87;13.47
49529;BME280;35423;37.320;-121.762;2023-07-29T05:36:27;100059.05;;;33.07;13.55
49529;BME280;35423;37.320;-121.762;2023-07-29T05:38:54;100056.15;;;32.54;13.62
49529;BME280;35423;37.320;-121.762;2023-07-29T05:41:21;100053.05;;;32.93;13.71
49529;BME280;35423;37.320;-121.762;2023-07-29T05:43:46;100051.21;;;32.85;13.83
49529;BME280;35423;37.320;-121.762;2023-07-29T05:46:13;100052.67;;;32.22;13.97
49529;BME280;35423;37.320;-121.762;2023-07-29T05:48:41;100052.11;;;32.32;14.00
49529;BME280;35423;37.320;-121.762;2023-07-29T05:51:08;100052.48;;;32.47;13.98
49529;BME280;35423;37.320;-121.762;2023-07-29T05:53:33;100053.54;;;32.31;14.03
49529;BME280;35423;37.320;-121.762;2023-07-29T05:56:02;100056.94;;;32.20;14.02
49529;BME280;35423;37.320;-121.762;2023-07-29T05:58:24;100055.23;;;32.07;14.07
49529;BME280;35423;37.320;-121.762;2023-07-29T06:00:51;100057.66;;;32.01;14.13
49529;BME280;35423;37.320;-121.762;2023-07-29T06:03:20;100058.12;;;31.40;14.13
49529;BME280;35423;37.320;-121.762;2023-07-29T06:05:46;100056.84;;;32.21;13.90
49529;BME280;35423;37.320;-121.762;2023-07-29T06:08:11;100057.91;;;31.32;13.89
49529;BME280;35423;37.320;-121.762;2023-07-29T06:10:44;100057.11;;;31.78;13.84
49529;BME280;35423;37.320;-121.762;2023-07-29T06:13:13;100056.80;;;31.42;13.83
49529;BME280;35423;37.320;-121.762;2023-07-29T06:15:41;100056.24;;;31.63;13.68
49529;BME280;35423;37.320;-121.762;2023-07-29T06:18:07;100055.36;;;32.21;13.61
49529;BME280;35423;37.320;-121.762;2023-07-29T06:20:31;100052.06;;;31.97;13.74
49529;BME280;35423;37.320;-121.762;2023-07-29T06:22:58;100054.16;;;31.86;13.93
49529;BME280;35423;37.320;-121.762;2023-07-29T06:25:23;100052.41;;;31.65;13.93
49529;BME280;35423;37.320;-121.762;2023-07-29T06:27:48;100049.89;;;31.66;13.93
49529;BME280;35423;37.320;-121.762;2023-07-29T06:30:18;100051.49;;;31.67;13.97
49529;BME280;35423;37.320;-121.762;2023-07-29T06:32:44;100057.15;;;31.55;13.93
49529;BME280;35423;37.320;-121.762;2023-07-29T06:35:11;100059.22;;;31.92;13.99
49529;BME280;35423;37.320;-121.762;2023-07-29T06:37:36;100057.97;;;31.76;14.20
49529;BME280;35423;37.320;-121.762;2023-07-29T06:40:02;100055.09;;;31.30;14.47
49529;BME280;35423;37.320;-121.762;2023-07-29T06:42:28;100053.59;;;31.19;14.56
49529;BME280;35423;37.320;-121.762;2023-07-29T06:44:57;100054.77;;;31.40;14.59
49529;BME280;35423;37.320;-121.762;2023-07-29T06:47:21;100057.53;;;31.63;14.57
49529;BME280;35423;37.320;-121.762;2023-07-29T06:49:49;100057.39;;;31.46;14.69
49529;BME280;35423;37.320;-121.762;2023-07-29T06:52:21;100059.10;;;31.27;14.72
49529;BME280;35423;37.320;-121.762;2023-07-29T06:54:42;100061.38;;;31.09;14.82
49529;BME280;35423;37.320;-121.762;2023-07-29T06:57:09;100063.58;;;31.47;14.93
49529;BME280;35423;37.320;-121.762;2023-07-29T06:59:36;100064.11;;;30.83;14.97
49529;BME280;35423;37.320;-121.762;2023-07-29T07:02:06;100068.00;;;31.21;15.02
49529;BME280;35423;37.320;-121.762;2023-07-29T07:04:43;100067.48;;;30.94;15.21
49529;BME280;35423;37.320;-121.762;2023-07-29T07:07:13;100068.37;;;30.59;15.30
49529;BME280;35423;37.320;-121.762;2023-07-29T07:09:36;100068.01;;;30.29;15.23
49529;BME280;35423;37.320;-121.762;2023-07-29T07:12:02;100069.71;;;30.28;15.25
49529;BME280;35423;37.320;-121.762;2023-07-29T07:14:28;100064.79;;;30.30;15.26
49529;BME280;35423;37.320;-121.762;2023-07-29T07:16:56;100062.35;;;29.98;15.17
49529;BME280;35423;37.320;-121.762;2023-07-29T07:19:20;100055.10;;;30.11;15.10
49529;BME280;35423;37.320;-121.762;2023-07-29T07:21:47;100053.60;;;30.65;15.12
49529;BME280;35423;37.320;-121.762;2023-07-29T07:24:12;100055.67;;;30.64;15.17
49529;BME280;35423;37.320;-121.762;2023-07-29T07:26:38;100055.26;;;30.42;15.34
49529;BME280;35423;37.320;-121.762;2023-07-29T07:29:04;100053.43;;;30.34;15.40
49529;BME280;35423;37.320;-121.762;2023-07-29T07:31:35;100053.93;;;31.10;15.35
49529;BME280;35423;37.320;-121.762;2023-07-29T07:34:02;100052.10;;;31.02;15.49
49529;BME280;35423;37.320;-121.762;2023-07-29T07:36:31;100048.57;;;29.94;15.71
49529;BME280;35423;37.320;-121.762;2023-07-29T07:39:00;100047.62;;;30.50;15.79
49529;BME280;35423;37.320;-121.762;2023-07-29T07:41:22;100046.35;;;30.34;15.88
49529;BME280;35423;37.320;-121.762;2023-07-29T07:43:51;100047.41;;;29.59;15.91
49529;BME280;35423;37.320;-121.762;2023-07-29T07:46:18;100047.82;;;29.61;15.78
49529;BME280;35423;37.320;-121.762;2023-07-29T07:48:44;100044.36;;;30.00;15.69
49529;BME280;35423;37.320;-121.762;2023-07-29T07:51:13;100046.17;;;29.85;15.64
49529;BME280;35423;37.320;-121.762;2023-07-29T07:53:41;100048.01;;;29.84;15.67
49529;BME280;35423;37.320;-121.762;2023-07-29T07:56:06;100052.69;;;29.81;15.69
49529;BME280;35423;37.320;-121.762;2023-07-29T07:58:32;100059.38;;;29.80;15.75
49529;BME280;35423;37.320;-121.762;2023-07-29T08:01:02;100060.05;;;29.71;15.84
49529;BME280;35423;37.320;-121.762;2023-07-29T08:03:28;100058.62;;;29.68;15.82
49529;BME280;35423;37.320;-121.762;2023-07-29T08:05:53;100060.65;;;29.61;15.85
49529;BME280;35423;37.320;-121.762;2023-07-29T08:08:21;100056.80;;;30.15;15.96
49529;BME280;35423;37.320;-121.762;2023-07-29T08:10:54;100054.20;;;29.77;16.34
49529;BME280;35423;37.320;-121.762;2023-07-29T08:13:22;100057.90;;;29.29;16.65
49529;BME280;35423;37.320;-121.762;2023-07-29T08:15:50;100056.90;;;28.89;16.78
49529;BME280;35423;37.320;-121.762;2023-07-29T08:18:18;100055.88;;;29.40;16.77
49529;BME280;35423;37.320;-121.762;2023-07-29T08:23:10;100050.14;;;28.90;16.74
49529;BME280;35423;37.320;-121.762;2023-07-29T08:25:37;100045.88;;;28.98;16.69
49529;BME280;35423;37.320;-121.762;2023-07-29T08:28:02;100044.55;;;29.53;16.76
49529;BME280;35423;37.320;-121.762;2023-07-29T08:30:27;100043.67;;;28.65;16.87
49529;BME280;35423;37.320;-121.762;2023-07-29T08:32:53;100044.22;;;28.73;16.78
49529;BME280;35423;37.320;-121.762;2023-07-29T08:35:20;100043.30;;;29.35;16.82
49529;BME280;35423;37.320;-121.762;2023-07-29T08:37:49;100043.44;;;29.18;17.11
49529;BME280;35423;37.320;-121.762;2023-07-29T08:40:22;100044.94;;;28.34;17.40
49529;BME280;35423;37.320;-121.762;2023-07-29T08:42:47;100042.31;;;28.24;17.46
49529;BME280;35423;37.320;-121.762;2023-07-29T08:45:17;100044.79;;;28.04;17.65
49529;BME280;35423;37.320;-121.762;2023-07-29T08:47:43;100043.05;;;28.81;17.80
49529;BME280;35423;37.320;-121.762;2023-07-29T08:50:11;100043.69;;;28.27;18.06
49529;BME280;35423;37.320;-121.762;2023-07-29T08:52:36;100044.72;;;28.32;18.24
49529;BME280;35423;37.320;-121.762;2023-07-29T08:55:02;100045.06;;;28.13;18.45
49529;BME280;35423;37.320;-121.762;2023-07-29T08:57:29;100043.11;;;27.91;18.59
49529;BME280;35423;37.320;-121.762;2023-07-29T08:59:55;100042.35;;;27.13;18.49
49529;BME280;35423;37.320;-121.762;2023-07-29T09:02:20;100038.79;;;27.56;18.26
49529;BME280;35423;37.320;-121.762;2023-07-29T09:04:50;100032.50;;;28.10;18.18
49529;BME280;35423;37.320;-121.762;2023-07-29T09:07:17;100030.08;;;27.73;18.22
49529;BME280;35423;37.320;-121.762;2023-07-29T09:09:47;100027.63;;;28.10;18.22
49529;BME280;35423;37.320;-121.762;2023-07-29T09:12:24;100026.21;;;27.40;18.33
49529;BME280;35423;37.320;-121.762;2023-07-29T09:14:56;100024.49;;;27.32;18.19
49529;BME280;35423;37.320;-121.762;2023-07-29T09:17:21;100023.01;;;28.04;18.26
49529;BME280;35423;37.320;-121.762;2023-07-29T09:19:50;100019.70;;;27.86;18.45
49529;BME280;35423;37.320;-121.762;2023-07-29T09:22:21;100019.03;;;27.97;18.59
49529;BME280;35423;37.320;-121.762;2023-07-29T09:24:51;100023.36;;;27.07;18.59
49529;BME280;35423;37.320;-121.762;2023-07-29T09:27:24;100021.05;;;27.81;18.41
49529;BME280;35423;37.320;-121.762;2023-07-29T09:29:47;100018.04;;;27.37;18.57
49529;BME280;35423;37.320;-121.762;2023-07-29T09:32:19;100019.33;;;27.72;18.62
49529;BME280;35423;37.320;-121.762;2023-07-29T09:34:42;100018.44;;;27.71;18.74
49529;BME280;35423;37.320;-121.762;2023-07-29T09:37:07;100015.11;;;27.67;18.89
49529;BME280;35423;37.320;-121.762;2023-07-29T09:39:34;100010.73;;;27.62;19.12
49529;BME280;35423;37.320;-121.762;2023-07-29T09:42:09;100009.84;;;26.75;19.29
49529;BME280;35423;37.320;-121.762;2023-07-29T09:44:36;100008.68;;;27.56;19.29
49529;BME280;35423;37.320;-121.762;2023-07-29T09:46:57;100008.07;;;27.65;19.48
49529;BME280;35423;37.320;-121.762;2023-07-29T09:49:23;100006.85;;;27.22;19.68
49529;BME280;35423;37.320;-121.762;2023-07-29T09:51:49;100007.92;;;26.73;19.80
49529;BME280;35423;37.320;-121.762;2023-07-29T09:54:17;100008.65;;;27.08;19.96
49529;BME280;35423;37.320;-121.762;2023-07-29T09:56:44;100010.92;;;26.52;20.09
49529;BME280;35423;37.320;-121.762;2023-07-29T09:59:11;100010.58;;;26.56;20.19
49529;BME280;35423;37.320;-121.762;2023-07-29T10:01:41;100010.96;;;26.59;20.26
49529;BME280;35423;37.320;-121.762;2023-07-29T10:04:07;100009.72;;;27.05;20.30
49529;BME280;35423;37.320;-121.762;2023-07-29T10:06:34;100010.78;;;26.49;20.23
49529;BME280;35423;37.320;-121.762;2023-07-29T10:09:03;100013.07;;;26.57;19.93
49529;BME280;35423;37.320;-121.762;2023-07-29T10:11:28;100016.18;;;26.50;19.76
49529;BME280;35423;37.320;-121.762;2023-07-29T10:13:59;100018.07;;;26.88;19.63
49529;BME280;35423;37.320;-121.762;2023-07-29T10:16:26;100021.31;;;26.68;19.61
49529;BME280;35423;37.320;-121.762;2023-07-29T10:18:55;100021.03;;;26.65;19.59
49529;BME280;35423;37.320;-121.762;2023-07-29T10:21:22;100020.22;;;26.39;19.64
49529;BME280;35423;37.320;-121.762;2023-07-29T10:23:49;100019.16;;;27.07;19.88
49529;BME280;35423;37.320;-121.762;2023-07-29T10:26:20;100011.30;;;26.41;20.30
49529;BME280;35423;37.320;-121.762;2023-07-29T10:28:48;100010.43;;;27.00;20.45
49529;BME280;35423;37.320;-121.762;2023-07-29T10:31:08;100011.23;;;26.55;20.66
49529;BME280;35423;37.320;-121.762;2023-07-29T10:33:35;100007.03;;;27.19;20.66
49529;BME280;35423;37.320;-121.762;2023-07-29T10:36:01;100003.11;;;25.99;20.58
49529;BME280;35423;37.320;-121.762;2023-07-29T10:38:30;99998.46;;;26.51;20.29
49529;BME280;35423;37.320;-121.762;2023-07-29T10:40:58;99996.92;;;26.14;20.14
49529;BME280;35423;37.320;-121.762;2023-07-29T10:43:26;99996.96;;;26.22;20.01
49529;BME280;35423;37.320;-121.762;2023-07-29T10:45:48;99999.88;;;26.50;19.94
49529;BME280;35423;37.320;-121.762;2023-07-29T10:50:52;100006.38;;;25.92;20.58
49529;BME280;35423;37.320;-121.762;2023-07-29T10:53:17;100005.72;;;26.33;20.50
49529;BME280;35423;37.320;-121.762;2023-07-29T10:55:46;100008.34;;;26.41;20.70
49529;BME280;35423;37.320;-121.762;2023-07-29T10:58:16;100008.50;;;26.09;20.80
49529;BME280;35423;37.320;-121.762;2023-07-29T11:00:51;100010.27;;;26.07;20.73
49529;BME280;35423;37.320;-121.762;2023-07-29T11:03:15;100011.38;;;26.20;20.93
49529;BME280;35423;37.320;-121.762;2023-07-29T11:05:49;100009.18;;;26.08;21.07
49529;BME280;35423;37.320;-121.762;2023-07-29T11:08:17;100011.47;;;25.85;21.16
49529;BME280;35423;37.320;-121.762;2023-07-29T11:10:43;100014.18;;;25.99;21.23
49529;BME280;35423;37.320;-121.762;2023-07-29T11:13:08;100016.11;;;25.78;21.36
49529;BME280;35423;37.320;-121.762;2023-07-29T11:15:37;100012.91;;;25.38;21.23
49529;BME280;35423;37.320;-121.762;2023-07-29T11:18:13;100014.19;;;26.04;21.07
49529;BME280;35423;37.320;-121.762;2023-07-29T11:20:42;100013.60;;;25.86;21.17
49529;BME280;35423;37.320;-121.762;2023-07-29T11:23:07;100013.02;;;26.11;21.29
49529;BME280;35423;37.320;-121.762;2023-07-29T11:25:39;100013.92;;;25.16;21.44
49529;BME280;35423;37.320;-121.762;2023-07-29T11:28:11;100015.99;;;25.19;21.29
49529;BME280;35423;37.320;-121.762;2023-07-29T11:30:31;100016.63;;;25.82;21.15
49529;BME280;35423;37.320;-121.762;2023-07-29T11:32:57;100018.15;;;26.11;21.25
49529;BME280;35423;37.320;-121.762;2023-07-29T11:35:27;100019.19;;;24.99;21.44
49529;BME280;35423;37.320;-121.762;2023-07-29T11:37:56;100012.25;;;25.90;21.47
49529;BME280;35423;37.320;-121.762;2023-07-29T11:40:20;100017.32;;;25.52;21.65
49529;BME280;35423;37.320;-121.762;2023-07-29T11:42:46;100019.45;;;25.09;21.63
49529;BME280;35423;37.320;-121.762;2023-07-29T11:45:20;100020.86;;;25.07;21.65
49529;BME280;35423;37.320;-121.762;2023-07-29T11:47:45;100020.80;;;24.95;21.64
49529;BME280;35423;37.320;-121.762;2023-07-29T11:50:12;100017.15;;;25.21;21.64
49529;BME280;35423;37.320;-121.762;2023-07-29T11:52:42;100014.15;;;25.98;21.68
49529;BME280;35423;37.320;-121.762;2023-07-29T11:55:09;100014.00;;;25.54;21.93
49529;BME280;35423;37.320;-121.762;2023-07-29T11:57:37;100013.63;;;25.19;22.13
49529;BME280;35423;37.320;-121.762;2023-07-29T12:00:07;100013.93;;;24.99;22.30
49529;BME280;35423;37.320;-121.762;2023-07-29T12:02:29;100012.73;;;25.26;22.55
49529;BME280;35423;37.320;-121.762;2023-07-29T12:04:58;100016.21;;;24.97;22.77
49529;BME280;35423;37.320;-121.762;2023-07-29T12:07:30;100017.93;;;24.79;22.96
49529;BME280;35423;37.320;-121.762;2023-07-29T12:09:54;100022.37;;;24.66;23.13
49529;BME280;35423;37.320;-121.762;2023-07-29T12:12:23;100024.11;;;24.59;23.19
49529;BME280;35423;37.320;-121.762;2023-07-29T12:14:53;100027.99;;;24.40;23.11
49529;BME280;35423;37.320;-121.762;2023-07-29T12:17:17;100036.30;;;24.57;23.11
49529;BME280;35423;37.320;-121.762;2023-07-29T12:19:46;100035.94;;;24.69;23.13
49529;BME280;35423;37.320;-121.762;2023-07-29T12:22:11;100036.27;;;24.87;23.29
49529;BME280;35423;37.320;-121.762;2023-07-29T12:24:40;100040.52;;;24.26;23.40
49529;BME280;35423;37.320;-121.762;2023-07-29T12:27:11;100048.06;;;24.44;23.42
49529;BME280;35423;37.320;-121.762;2023-07-29T12:29:45;100048.71;;;24.51;23.38
49529;BME280;35423;37.320;-121.762;2023-07-29T12:32:06;100050.89;;;24.22;23.51